Svobodnyj, Russia
Current Conditions -  °F | °C
As of 10:00 PM on Sunday 23 Nov 2014 (Local Time) from UHBB Reporting Station
Clear Clear  
Wind Chill: -8°   Ceiling: Unl
Heat Index:   Visibility: 6mi
Dew Point:   Wind: 4mph
Humidity: 100%   Direction: 360°N
Pressure: 30.12"   Gusts: NA
Location:  51.4°N, 128.13°E
Report Text: UHBB 231300Z 36002MPS CAVOK M17/M17 Q1020 NOSIG RMK QFE747/099636810350
Loading
Personal Weather Stations






























Interactive Weather Map New forecast layout! Learn more

10-Day Weather Forecast

Advertisements
Track Severe Weather on mobile